Time;durP1;ratioP1;P1;durP2;ratioP2;P2;SDS_P1;SDS_P2;PMS_P1;PMS_P2;Temp;Humidity;BMP_temperature;BMP_pressure;BME280_temperature;BME280_humidity;BME280_pressure;Samples;Min_cycle;Max_cycle;Signal;HPM_P1;HPM_P2
2022/09/19 00:00:15;;;;;;;1.48;0.43;;;;;;;10.12;74.48;100676.78;4129146;28;20432;-62
2022/09/19 00:02:19;;;;;;;0.57;0.35;;;;;;;10.11;73.67;100668.09;4113376;28;20051;-62
2022/09/19 00:04:25;;;;;;;1.02;0.50;;;;;;;10.05;73.35;100675.78;4131154;28;20057;-62
2022/09/19 00:06:29;;;;;;;4.22;0.73;;;;;;;10.03;73.32;100667.09;4131441;28;20035;-61
2022/09/19 00:08:32;;;;;;;0.68;0.50;;;;;;;10.06;73.55;100679.25;4131563;28;20042;-61
2022/09/19 00:10:40;;;;;;;0.77;0.50;;;;;;;10.10;73.74;100679.34;4114388;28;20101;-62
2022/09/19 00:12:43;;;;;;;0.68;0.50;;;;;;;10.14;73.20;100678.53;4131471;28;20038;-62
2022/09/19 00:14:47;;;;;;;0.30;0.30;;;;;;;10.17;72.89;100689.88;4130917;28;20030;-62
2022/09/19 00:16:55;;;;;;;1.70;0.40;;;;;;;10.23;73.21;100697.78;4128343;28;20512;-62
2022/09/19 00:19:01;;;;;;;0.20;0.20;;;;;;;10.21;72.78;100691.69;4131400;28;20074;-62
2022/09/19 00:21:05;;;;;;;1.17;0.52;;;;;;;10.22;73.40;100691.72;4131027;28;20121;-62
2022/09/19 00:25:28;;;;;;;1.13;0.50;;;;;;;10.26;73.45;100697.81;4129171;28;20038;-62
2022/09/19 00:27:31;;;;;;;1.80;0.45;;;;;;;10.24;73.42;100699.53;4130768;28;20070;-61
2022/09/19 00:29:36;;;;;;;0.73;0.50;;;;;;;10.25;72.72;100699.56;4128619;28;20039;-62
2022/09/19 00:31:38;;;;;;;1.25;0.50;;;;;;;10.19;73.20;100703.75;4113505;28;20094;-61
2022/09/19 00:33:41;;;;;;;2.60;0.40;;;;;;;10.12;73.39;100700.16;4128977;28;20035;-61
2022/09/19 00:35:46;;;;;;;2.15;0.68;;;;;;;10.08;72.78;100700.94;4128960;28;20042;-62
2022/09/19 00:37:48;;;;;;;3.78;0.60;;;;;;;10.05;73.78;100703.50;4131156;28;20042;-62
2022/09/19 00:39:52;;;;;;;1.13;0.50;;;;;;;10.00;73.56;100703.38;4129773;28;20510;-62
2022/09/19 00:41:55;;;;;;;0.70;0.52;;;;;;;9.95;73.50;100708.47;4131006;28;20042;-62
2022/09/19 00:44:00;;;;;;;0.80;0.50;;;;;;;9.95;73.47;100710.19;4129490;28;20045;-62
2022/09/19 00:46:03;;;;;;;1.60;0.68;;;;;;;9.92;73.43;100717.94;4129663;28;20042;-62
2022/09/19 00:48:06;;;;;;;2.22;0.70;;;;;;;9.98;73.23;100715.47;4130931;28;20134;-62
2022/09/19 00:50:19;;;;;;;1.73;0.73;;;;;;;10.04;72.90;100712.13;4129707;28;20042;-62
2022/09/19 00:52:31;;;;;;;2.90;0.70;;;;;;;10.00;73.84;100718.94;4129702;28;20039;-62
2022/09/19 00:54:40;;;;;;;1.35;0.68;;;;;;;10.03;73.74;100715.53;4129236;28;20046;-62
2022/09/19 00:56:47;;;;;;;2.05;0.73;;;;;;;9.96;73.49;100712.84;4129598;28;20452;-62
2022/09/19 00:58:53;;;;;;;2.58;0.93;;;;;;;9.99;73.04;100713.72;4128608;28;20031;-62
2022/09/19 01:00:57;;;;;;;1.20;0.73;;;;;;;9.96;73.46;100710.22;4129399;28;20050;-62
2022/09/19 01:03:01;;;;;;;2.63;0.70;;;;;;;9.92;72.92;100715.34;4113589;28;20046;-62
2022/09/19 01:05:06;;;;;;;1.42;0.50;;;;;;;9.93;72.95;100712.78;4132641;28;20069;-62
2022/09/19 01:07:15;;;;;;;2.95;0.70;;;;;;;9.91;73.01;100716.19;4133714;28;20042;-62
2022/09/19 01:09:44;;;;;;;4.05;0.60;;;;;;;9.87;72.99;100716.94;4132194;28;20487;-62
2022/09/19 01:12:20;;;;;;;0.40;0.40;;;;;;;9.91;73.28;100721.38;4130058;28;20460;-62
2022/09/19 01:14:37;;;;;;;2.42;0.82;;;;;;;9.88;73.41;100719.56;4126716;28;20054;-62
2022/09/19 01:16:42;;;;;;;1.42;0.80;;;;;;;9.79;73.68;100720.25;4133342;28;20089;-62
2022/09/19 01:18:51;;;;;;;2.22;0.75;;;;;;;9.87;73.48;100720.44;4132064;28;20034;-62
2022/09/19 01:23:51;;;;;;;3.35;1.25;;;;;;;9.85;73.89;100713.44;4130621;28;20527;-62
2022/09/19 01:26:07;;;;;;;3.85;1.30;;;;;;;9.85;73.32;100708.25;4112897;28;20049;-62
2022/09/19 01:28:20;;;;;;;4.75;1.50;;;;;;;9.84;73.78;100722.06;4105015;28;20046;-62
2022/09/19 01:30:31;;;;;;;6.10;1.75;;;;;;;9.88;73.34;100718.72;4132300;28;20034;-62
2022/09/19 01:32:38;;;;;;;3.85;1.50;;;;;;;9.91;73.22;100719.63;4133057;28;20046;-63
2022/09/19 01:34:46;;;;;;;6.50;2.08;;;;;;;9.94;73.00;100724.91;4131612;28;20038;-63
2022/09/19 01:36:58;;;;;;;5.05;2.38;;;;;;;9.91;73.42;100736.94;4133091;28;20463;-63
2022/09/19 01:39:04;;;;;;;3.38;1.40;;;;;;;9.87;72.93;100729.94;4130914;28;20125;-62
2022/09/19 01:41:13;;;;;;;3.20;1.50;;;;;;;9.91;73.13;100734.34;4132013;28;20034;-63
2022/09/19 01:43:19;;;;;;;;;;;;;;;9.78;73.32;100731.50;4132005;28;20053;-63
2022/09/19 01:45:24;;;;;;;4.13;1.50;;;;;;;9.82;73.65;100737.63;4131744;28;19928;-64
2022/09/19 01:47:36;;;;;;;3.60;1.38;;;;;;;9.85;73.79;100729.91;4132871;28;20039;-62
2022/09/19 01:49:49;;;;;;;2.78;1.15;;;;;;;9.91;73.84;100739.53;4132147;28;20476;-63
2022/09/19 01:52:03;;;;;;;5.28;0.90;;;;;;;9.88;73.22;100737.75;4131651;28;20037;-63
2022/09/19 01:54:26;;;;;;;6.45;1.35;;;;;;;9.88;73.25;100736.88;4130768;28;20043;-63
2022/09/19 01:56:44;;;;;;;1.65;0.80;;;;;;;9.88;73.27;100742.94;4133072;28;20377;-62
2022/09/19 01:58:54;;;;;;;3.53;1.05;;;;;;;9.78;73.50;100749.69;4115946;28;20066;-63
2022/09/19 02:01:06;;;;;;;3.58;0.82;;;;;;;9.77;73.23;100745.31;4115782;28;20074;-63
2022/09/19 02:03:17;;;;;;;5.30;0.90;;;;;;;9.76;73.38;100740.97;4131795;28;20563;-62
2022/09/19 02:05:36;;;;;;;7.40;1.33;;;;;;;9.79;73.92;100742.75;4130918;28;20656;-62
2022/09/19 02:07:45;;;;;;;4.97;0.80;;;;;;;9.84;73.48;100740.25;4131769;28;20117;-63
2022/09/19 02:09:54;;;;;;;1.42;0.68;;;;;;;9.88;73.06;100739.47;4131582;28;20065;-63
2022/09/19 02:12:02;;;;;;;2.20;0.70;;;;;;;9.87;73.88;100742.91;4115591;28;20050;-63
2022/09/19 02:14:17;;;;;;;2.10;0.75;;;;;;;9.88;73.70;100745.53;4129966;28;20049;-63
2022/09/19 02:16:28;;;;;;;3.25;0.70;;;;;;;9.87;73.52;100745.50;4147100;28;20125;-63
2022/09/19 02:18:38;;;;;;;2.58;0.82;;;;;;;9.89;73.71;100751.63;4132532;28;20381;-63
2022/09/19 02:20:43;;;;;;;2.72;0.70;;;;;;;9.85;74.36;100760.19;4130424;28;20148;-63
2022/09/19 02:22:52;;;;;;;4.03;0.80;;;;;;;9.87;73.99;100761.09;4131434;28;20046;-63
2022/09/19 02:24:58;;;;;;;2.60;0.77;;;;;;;9.88;73.99;100755.06;4131164;28;20045;-63
2022/09/19 02:27:07;;;;;;;1.17;0.70;;;;;;;9.85;74.08;100752.41;4131278;28;20043;-63
2022/09/19 02:29:19;;;;;;;5.28;0.88;;;;;;;9.88;74.48;100760.25;4128395;28;20050;-63
2022/09/19 02:31:26;;;;;;;1.35;0.63;;;;;;;9.89;74.51;100762.03;4132606;28;20072;-63
2022/09/19 02:33:34;;;;;;;2.90;0.73;;;;;;;9.90;74.66;100761.16;4131023;28;20093;-63
2022/09/19 02:35:45;;;;;;;2.60;0.68;;;;;;;9.91;74.94;100761.19;4142237;28;20108;-63
2022/09/19 02:37:55;;;;;;;2.70;0.60;;;;;;;9.92;75.20;100764.69;4146753;28;20038;-63
2022/09/19 02:40:04;;;;;;;3.95;1.33;;;;;;;9.93;75.42;100769.91;4128999;28;20523;-63
2022/09/19 02:42:22;;;;;;;4.78;0.80;;;;;;;9.99;75.27;100763.97;4131240;28;20046;-62
2022/09/19 02:44:34;;;;;;;4.45;1.30;;;;;;;9.99;75.33;100768.28;4130535;28;20035;-63
2022/09/19 02:46:43;;;;;;;2.35;0.80;;;;;;;10.01;75.60;100766.59;4130928;28;20245;-62
2022/09/19 02:48:54;;;;;;;4.85;2.63;;;;;;;10.05;75.28;100763.22;4106527;28;20047;-63
2022/09/19 02:51:01;;;;;;;2.70;0.80;;;;;;;10.05;75.69;100758.91;4127392;28;20034;-63
2022/09/19 02:53:13;;;;;;;3.25;0.80;;;;;;;10.01;75.42;100766.59;4147048;28;20049;-62
2022/09/19 02:55:23;;;;;;;2.85;0.93;;;;;;;10.00;75.70;100765.69;4131087;28;20038;-62
2022/09/19 02:57:29;;;;;;;3.10;1.00;;;;;;;9.94;76.26;100768.16;4130645;28;20053;-63
2022/09/19 02:59:38;;;;;;;3.42;1.17;;;;;;;9.94;75.71;100776.88;4130805;28;20042;-64
2022/09/19 03:01:45;;;;;;;2.25;0.90;;;;;;;9.96;75.60;100771.69;4130659;28;20117;-63
2022/09/19 03:06:20;;;;;;;3.95;1.23;;;;;;;10.03;76.07;100770.09;4106786;28;20035;-63
2022/09/19 03:08:26;;;;;;;4.28;1.10;;;;;;;10.02;75.73;100776.16;4121752;28;20485;-63
2022/09/19 03:10:35;;;;;;;1.65;0.88;;;;;;;10.03;75.52;100783.09;4114480;28;20074;-63
2022/09/19 03:13:04;;;;;;;2.67;1.10;;;;;;;10.01;75.27;100777.84;4120886;28;20042;-62
2022/09/19 03:15:10;;;;;;;6.25;1.17;;;;;;;10.07;75.42;100777.13;4114235;28;20054;-63
2022/09/19 03:17:22;;;;;;;9.93;1.48;;;;;;;10.11;74.53;100779.81;4129176;28;20129;-62
2022/09/19 03:19:25;;;;;;;4.72;0.80;;;;;;;10.11;74.78;100785.00;4127570;28;20164;-63
2022/09/19 03:21:28;;;;;;;4.78;1.10;;;;;;;10.11;74.67;100782.41;4116726;28;20515;-63
2022/09/19 03:23:37;;;;;;;3.50;2.15;;;;;;;10.10;75.19;100778.06;4130390;28;20042;-63
2022/09/19 03:25:40;;;;;;;1.63;0.98;;;;;;;10.07;75.45;100785.78;4131583;28;20046;-63
2022/09/19 03:27:44;;;;;;;3.05;1.52;;;;;;;10.07;75.04;100788.38;4130234;28;20039;-63
2022/09/19 03:29:49;;;;;;;2.63;1.13;;;;;;;10.05;75.34;100790.06;4130541;28;20045;-63
2022/09/19 03:31:53;;;;;;;4.43;1.13;;;;;;;10.11;75.37;100789.34;4129602;28;20053;-63
2022/09/19 03:33:57;;;;;;;4.72;1.30;;;;;;;10.09;75.07;100791.91;4131293;28;20050;-63
2022/09/19 03:36:06;;;;;;;5.50;1.40;;;;;;;10.09;75.42;100794.50;4130443;28;20101;-63
2022/09/19 03:38:09;;;;;;;4.60;0.90;;;;;;;10.08;75.72;100799.66;4130083;28;20039;-63
2022/09/19 03:40:12;;;;;;;2.63;1.15;;;;;;;10.08;75.75;100797.94;4114164;28;20552;-63
2022/09/19 03:42:15;;;;;;;5.55;1.20;;;;;;;10.09;75.75;100799.69;4130189;28;20057;-62
2022/09/19 03:44:19;;;;;;;5.32;1.10;;;;;;;10.11;75.96;100805.78;4113651;28;20047;-63
2022/09/19 03:46:22;;;;;;;4.53;1.40;;;;;;;10.10;76.20;100803.16;4129135;28;20038;-63
2022/09/19 03:48:31;;;;;;;;;;;;;;;9.99;76.03;100805.53;4129656;28;20034;-63
2022/09/19 03:50:34;;;;;;;2.60;0.80;;;;;;;10.03;75.76;100802.16;4113941;28;20371;-62
2022/09/19 03:52:41;;;;;;;4.15;1.25;;;;;;;10.07;75.42;100809.16;4114203;28;20074;-62
2022/09/19 03:54:45;;;;;;;9.52;2.00;;;;;;;10.10;75.28;100804.06;4108155;28;20107;-62
2022/09/19 03:56:48;;;;;;;3.17;0.93;;;;;;;10.11;75.19;100805.78;4110473;28;20046;-63
2022/09/19 03:58:52;;;;;;;3.03;0.98;;;;;;;10.12;74.95;100812.75;4129968;28;20050;-62
2022/09/19 04:00:55;;;;;;;4.78;1.60;;;;;;;10.14;74.75;100816.25;4128585;28;20408;-62
2022/09/19 04:02:58;;;;;;;6.90;1.30;;;;;;;10.14;74.06;100812.78;4130117;28;20133;-62
2022/09/19 04:05:06;;;;;;;7.22;1.27;;;;;;;10.11;74.31;100818.78;4113829;28;20532;-62
2022/09/19 04:07:09;;;;;;;5.43;1.50;;;;;;;10.06;74.87;100825.59;4129494;28;20050;-62
2022/09/19 04:09:15;;;;;;;3.80;1.20;;;;;;;10.08;75.27;100830.84;4145258;28;20045;-62
2022/09/19 04:11:21;;;;;;;4.40;1.10;;;;;;;10.03;75.14;100830.72;4130228;28;20535;-62
2022/09/19 04:13:25;;;;;;;4.40;1.10;;;;;;;9.99;75.05;100831.50;4128370;28;20034;-63
2022/09/19 04:15:29;;;;;;;10.05;1.65;;;;;;;9.93;75.35;100837.44;4114068;28;20440;-63
2022/09/19 04:17:33;;;;;;;7.47;1.45;;;;;;;9.90;75.22;100832.16;4128158;28;20037;-62
2022/09/19 04:19:42;;;;;;;8.15;1.23;;;;;;;9.92;75.35;100830.47;4130338;28;20039;-63
2022/09/19 04:22:04;;;;;;;5.53;1.10;;;;;;;9.96;75.57;100831.44;4131455;28;20519;-63
2022/09/19 04:24:17;;;;;;;7.50;1.58;;;;;;;10.00;75.53;100834.97;4129256;28;20444;-63
2022/09/19 04:26:43;;;;;;;9.02;1.42;;;;;;;10.00;75.82;100842.75;4129957;28;20045;-63
2022/09/19 04:28:46;;;;;;;6.20;1.33;;;;;;;9.98;75.46;100842.72;4130160;28;20480;-63
2022/09/19 04:30:49;;;;;;;4.72;1.23;;;;;;;10.01;75.81;100844.53;4129262;28;20097;-62
2022/09/19 04:32:52;;;;;;;4.57;1.20;;;;;;;10.03;75.96;100846.31;4130001;28;20427;-63
2022/09/19 04:34:55;;;;;;;4.75;1.13;;;;;;;10.05;75.79;100847.22;4113671;28;20129;-63
2022/09/19 04:36:59;;;;;;;4.07;1.20;;;;;;;10.01;75.88;100852.31;4113972;28;20050;-62
2022/09/19 04:39:06;;;;;;;4.60;1.25;;;;;;;10.01;76.29;100853.19;4132442;28;20038;-62
2022/09/19 04:41:12;;;;;;;5.28;1.33;;;;;;;10.08;75.92;100855.06;4131033;28;20046;-63
2022/09/19 04:43:18;;;;;;;7.50;1.65;;;;;;;10.12;75.69;100846.50;4133683;28;20053;-63
2022/09/19 04:45:34;;;;;;;8.35;1.40;;;;;;;10.17;75.58;100844.00;4145832;28;20089;-62
2022/09/19 04:47:58;;;;;;;5.55;1.40;;;;;;;10.13;75.28;100853.47;4132440;28;20475;-63
2022/09/19 04:50:07;;;;;;;6.13;1.35;;;;;;;10.16;75.67;100854.38;4132995;28;20068;-63
2022/09/19 04:52:12;;;;;;;6.25;1.40;;;;;;;10.17;75.53;100856.13;4132550;28;20427;-62
2022/09/19 04:54:20;;;;;;;9.23;1.55;;;;;;;10.19;74.92;100860.53;4116064;28;20050;-63
2022/09/19 04:56:26;;;;;;;5.63;1.25;;;;;;;10.17;74.76;100858.72;4132809;28;20046;-62
2022/09/19 04:58:29;;;;;;;5.47;1.52;;;;;;;10.24;74.95;100869.28;4131948;28;20046;-62
2022/09/19 05:00:40;;;;;;;3.63;1.20;;;;;;;10.22;74.79;100863.19;4131051;28;20100;-62
2022/09/19 05:02:54;;;;;;;7.75;1.33;;;;;;;10.21;75.29;100871.81;4132579;28;20440;-62
2022/09/19 05:04:59;;;;;;;10.45;1.60;;;;;;;10.22;74.85;100865.78;4132260;28;20073;-62
2022/09/19 05:07:03;;;;;;;4.55;1.40;;;;;;;10.24;75.30;100864.09;4116551;28;20058;-63
2022/09/19 05:09:10;;;;;;;25.45;1.45;;;;;;;10.19;75.20;100867.44;4132555;28;20492;-62
2022/09/19 05:11:23;;;;;;;6.35;1.30;;;;;;;10.23;74.86;100866.66;4120112;28;20462;-62
2022/09/19 05:13:28;;;;;;;6.13;1.40;;;;;;;10.24;75.16;100868.41;4117487;28;20102;-63
2022/09/19 05:15:32;;;;;;;5.75;1.63;;;;;;;10.26;74.66;100877.13;4115689;28;20089;-63
2022/09/19 05:17:37;;;;;;;6.90;1.60;;;;;;;10.27;75.13;100884.06;4132405;28;20045;-62
2022/09/19 05:19:43;;;;;;;7.72;1.92;;;;;;;10.24;75.33;100886.63;4132815;28;20042;-63
2022/09/19 05:21:46;;;;;;;;;;;;;;;10.13;75.77;100892.44;4132869;28;20125;-62
2022/09/19 05:23:49;;;;;;;5.72;1.30;;;;;;;10.16;75.24;100891.59;4131543;28;19921;-63
2022/09/19 05:25:53;;;;;;;7.68;1.52;;;;;;;10.26;74.96;100897.91;4132204;28;20074;-62
2022/09/19 05:28:04;;;;;;;5.65;1.27;;;;;;;10.27;75.56;100897.94;4131888;28;20089;-63
2022/09/19 05:30:09;;;;;;;9.82;1.58;;;;;;;10.27;74.86;100886.69;4126689;28;20053;-63
2022/09/19 05:32:12;;;;;;;6.57;1.90;;;;;;;10.33;75.30;100893.72;4132098;28;20042;-63
2022/09/19 05:34:17;;;;;;;5.55;1.60;;;;;;;10.27;74.61;100897.94;4131328;28;20050;-63
2022/09/19 05:36:20;;;;;;;5.10;2.03;;;;;;;10.33;74.51;100896.34;4128525;28;20038;-63
2022/09/19 05:38:46;;;;;;;4.72;1.80;;;;;;;10.32;74.45;100903.22;4116051;28;20069;-62
2022/09/19 05:41:12;;;;;;;10.55;2.50;;;;;;;10.33;74.53;100899.78;4131981;28;20520;-62
2022/09/19 05:43:21;;;;;;;8.95;2.15;;;;;;;10.36;74.61;100912.88;4114185;28;20043;-63
2022/09/19 05:45:24;;;;;;;6.82;1.98;;;;;;;10.37;74.66;100904.25;4147772;28;20034;-62
2022/09/19 05:47:28;;;;;;;9.93;2.05;;;;;;;10.37;74.88;100906.84;4126091;28;20439;-62
2022/09/19 05:49:32;;;;;;;6.32;2.08;;;;;;;10.41;74.34;100908.69;4115407;28;20038;-62
2022/09/19 05:51:37;;;;;;;9.98;2.53;;;;;;;10.37;74.26;100908.59;4106634;28;20492;-62
2022/09/19 05:53:52;;;;;;;6.60;1.65;;;;;;;10.40;74.03;100912.13;4131722;28;20045;-62
2022/09/19 05:56:09;;;;;;;8.65;1.60;;;;;;;10.42;73.55;100919.94;4113766;28;20050;-62
2022/09/19 05:58:24;;;;;;;7.35;1.95;;;;;;;10.43;74.26;100919.13;4130826;28;20042;-62
2022/09/19 06:00:28;;;;;;;9.10;2.47;;;;;;;10.44;73.87;100924.34;4131904;28;20066;-62
2022/09/19 06:02:32;;;;;;;6.32;1.80;;;;;;;10.43;74.21;100925.19;4115649;28;20477;-62
2022/09/19 06:04:35;;;;;;;;;;;;;;;10.33;73.94;100928.38;4131860;28;20492;-62
2022/09/19 06:06:44;;;;;;;5.13;1.58;;;;;;;10.39;73.63;100935.47;4147473;28;20012;-62
2022/09/19 06:08:55;;;;;;;7.07;1.70;;;;;;;10.44;74.13;100926.94;4131759;28;20034;-62
2022/09/19 06:11:00;;;;;;;4.40;1.40;;;;;;;10.54;74.29;100940.13;4114537;28;20046;-62
2022/09/19 06:13:05;;;;;;;7.80;2.20;;;;;;;10.54;74.61;100945.34;4131638;28;20046;-62
2022/09/19 06:15:11;;;;;;;7.35;1.67;;;;;;;10.62;74.56;100933.41;4147809;28;20068;-62
2022/09/19 06:17:16;;;;;;;6.20;2.10;;;;;;;10.64;73.71;100935.19;4131551;28;20069;-62
2022/09/19 06:19:31;;;;;;;8.02;1.90;;;;;;;10.61;74.36;100939.44;4129343;28;20047;-62
2022/09/19 06:21:40;;;;;;;8.85;2.05;;;;;;;10.60;74.00;100941.16;4132441;28;20038;-63
2022/09/19 06:23:44;;;;;;;8.82;1.88;;;;;;;10.56;74.01;100944.53;4114825;28;20133;-63
2022/09/19 06:25:48;;;;;;;9.57;1.25;;;;;;;10.61;73.74;100947.22;4115345;28;20134;-63
2022/09/19 06:27:54;;;;;;;8.93;2.05;;;;;;;10.65;73.69;100949.91;4118044;28;20098;-62
2022/09/19 06:29:57;;;;;;;6.50;2.33;;;;;;;10.69;73.52;100956.09;4130859;28;20049;-63
2022/09/19 06:32:05;;;;;;;5.93;1.70;;;;;;;10.71;72.89;100959.59;4131250;28;20121;-63
2022/09/19 06:34:15;;;;;;;8.60;1.77;;;;;;;10.68;72.65;100959.53;4130193;28;20459;-63
2022/09/19 06:36:19;;;;;;;;;;;;;;;10.60;73.75;100955.88;4131245;28;20500;-63
2022/09/19 06:38:22;;;;;;;8.20;1.80;;;;;;;10.72;73.53;100961.34;4114923;28;19922;-63
2022/09/19 06:40:26;;;;;;;5.68;1.90;;;;;;;10.75;73.25;100952.75;4130596;28;20126;-63
2022/09/19 06:42:44;;;;;;;8.02;1.85;;;;;;;10.78;72.91;100964.06;4130972;28;20481;-63
2022/09/19 06:45:16;;;;;;;5.93;1.55;;;;;;;10.76;72.85;100968.38;4131231;28;20124;-63
2022/09/19 06:47:36;;;;;;;9.93;2.10;;;;;;;10.83;72.59;100969.38;4129011;28;20045;-63
2022/09/19 06:49:47;;;;;;;11.65;2.25;;;;;;;10.91;72.88;100961.75;4129995;28;20035;-63
2022/09/19 06:52:06;;;;;;;11.75;2.08;;;;;;;10.97;72.26;100962.75;4108957;28;20524;-62
2022/09/19 06:54:09;;;;;;;8.32;1.90;;;;;;;11.05;72.33;100965.50;4107706;28;20058;-62
2022/09/19 06:56:13;;;;;;;7.85;1.90;;;;;;;11.03;71.97;100966.31;4130908;28;20046;-62
2022/09/19 06:58:16;;;;;;;5.70;1.67;;;;;;;11.03;71.70;100974.13;4130617;28;20552;-63
2022/09/19 07:00:24;;;;;;;7.10;1.75;;;;;;;10.99;71.75;100976.69;4113607;28;20039;-63
2022/09/19 07:02:28;;;;;;;7.68;1.80;;;;;;;11.03;71.49;100974.13;4129144;28;20529;-63
2022/09/19 07:04:34;;;;;;;12.23;2.20;;;;;;;11.12;71.17;100972.56;4113772;28;20129;-64
2022/09/19 07:06:47;;;;;;;4.90;2.17;;;;;;;11.12;70.54;100977.78;4130679;28;20106;-63
2022/09/19 07:08:50;;;;;;;8.20;1.50;;;;;;;11.09;70.55;100972.50;4114245;28;20074;-63
2022/09/19 07:10:56;;;;;;;4.72;1.50;;;;;;;11.10;70.88;100973.41;4130245;28;20057;-63
2022/09/19 07:13:01;;;;;;;6.53;1.40;;;;;;;11.07;70.62;100981.13;4114456;28;20465;-63
2022/09/19 07:15:05;;;;;;;12.13;1.92;;;;;;;11.09;70.48;100984.66;4127819;28;20039;-63
2022/09/19 07:17:08;;;;;;;10.90;2.22;;;;;;;11.10;70.35;100982.09;4114840;28;20055;-64
2022/09/19 07:19:11;;;;;;;8.18;2.15;;;;;;;11.16;70.00;100983.94;4117469;28;20038;-63
2022/09/19 07:21:27;;;;;;;;;;;;;;;11.10;70.62;100992.50;4132343;28;20034;-63
2022/09/19 07:23:33;;;;;;;7.88;1.50;;;;;;;11.14;69.86;100989.13;4137819;28;19975;-63
2022/09/19 07:26:02;;;;;;;7.47;1.60;;;;;;;11.16;70.25;100984.81;4130087;28;20504;-64
2022/09/19 07:28:07;;;;;;;9.05;1.60;;;;;;;11.21;70.75;100991.84;4127038;28;20049;-64
2022/09/19 07:30:12;;;;;;;9.13;2.10;;;;;;;11.26;69.75;100990.22;4129775;28;20057;-64
2022/09/19 07:32:15;;;;;;;13.43;2.38;;;;;;;11.25;70.12;100999.72;4128061;28;20044;-63
2022/09/19 07:34:19;;;;;;;12.65;1.90;;;;;;;11.26;70.54;100998.88;4129183;28;20520;-64
2022/09/19 07:36:29;;;;;;;10.40;1.70;;;;;;;11.23;70.33;100995.31;4105925;28;20389;-64
2022/09/19 07:38:37;;;;;;;5.82;1.63;;;;;;;11.24;69.70;101002.31;4127717;28;20121;-64
2022/09/19 07:40:51;;;;;;;5.32;1.60;;;;;;;11.30;70.28;101002.41;4111516;28;20094;-64
2022/09/19 07:43:15;;;;;;;7.38;1.90;;;;;;;11.33;70.05;101003.38;4125864;28;20050;-62
2022/09/19 07:45:38;;;;;;;13.07;2.25;;;;;;;11.41;70.27;101006.13;4126621;28;20049;-63
2022/09/19 07:48:11;;;;;;;15.73;1.92;;;;;;;11.46;69.72;101004.50;4120736;28;20054;-64
2022/09/19 07:50:40;;;;;;;7.78;2.28;;;;;;;11.47;69.63;101006.22;4093624;28;20152;-63
2022/09/19 07:53:04;;;;;;;6.22;2.13;;;;;;;11.58;69.95;101006.44;4129370;28;20042;-63
2022/09/19 07:55:11;;;;;;;6.57;1.70;;;;;;;11.61;69.44;101001.31;4130127;28;20093;-63
2022/09/19 07:57:14;;;;;;;11.10;2.67;;;;;;;11.70;69.63;101011.88;4119542;28;20480;-64
2022/09/19 07:59:18;;;;;;;5.32;1.75;;;;;;;11.79;69.86;101011.16;4125279;28;20315;-64
2022/09/19 08:01:42;;;;;;;8.10;2.30;;;;;;;11.81;70.14;101012.09;4129933;28;20054;-64
2022/09/19 08:03:47;;;;;;;11.63;2.05;;;;;;;11.92;69.51;101014.88;4129510;28;20058;-64
2022/09/19 08:05:53;;;;;;;7.93;2.20;;;;;;;11.96;70.06;101019.31;4129275;28;20397;-65
2022/09/19 08:07:59;;;;;;;9.23;2.05;;;;;;;12.08;69.75;101021.25;4129531;28;20074;-65
2022/09/19 08:10:04;;;;;;;8.00;1.85;;;;;;;12.17;69.34;101028.34;4129833;28;20137;-65
2022/09/19 08:12:11;;;;;;;10.57;2.75;;;;;;;12.17;69.11;101030.97;4128721;28;20440;-68
2022/09/19 08:14:31;;;;;;;9.38;2.13;;;;;;;12.20;69.08;101028.41;4115535;28;20134;-67
2022/09/19 08:16:35;;;;;;;6.20;2.17;;;;;;;12.16;68.44;101030.09;4132255;28;20069;-64
2022/09/19 08:18:40;;;;;;;8.77;2.10;;;;;;;12.23;68.82;101028.47;4117410;28;20041;-66
2022/09/19 08:20:44;;;;;;;7.53;2.05;;;;;;;12.21;68.21;101031.03;4132739;28;20046;-65
2022/09/19 08:22:48;;;;;;;11.07;2.17;;;;;;;12.26;68.28;101031.09;4117482;28;20043;-71
2022/09/19 08:24:52;;;;;;;7.63;1.63;;;;;;;12.28;68.24;101036.34;4124042;28;20057;-65
2022/09/19 08:26:58;;;;;;;8.32;2.00;;;;;;;12.26;68.04;101041.53;4132247;28;20050;-65
2022/09/19 08:29:03;;;;;;;7.25;1.70;;;;;;;12.27;68.12;101035.47;4133087;28;20038;-65
2022/09/19 08:31:13;;;;;;;5.70;1.65;;;;;;;12.35;67.59;101030.38;4117188;28;20045;-63
2022/09/19 08:33:18;;;;;;;9.38;2.00;;;;;;;12.35;67.52;101040.81;4106231;28;20097;-63
2022/09/19 08:35:23;;;;;;;6.95;2.80;;;;;;;12.36;67.26;101046.06;4132010;28;20117;-67
2022/09/19 08:37:30;;;;;;;6.88;1.60;;;;;;;12.43;67.48;101047.03;4131910;28;20101;-65
2022/09/19 08:39:33;;;;;;;10.95;3.38;;;;;;;12.53;67.26;101055.91;4131627;28;20062;-61
2022/09/19 08:41:57;;;;;;;10.05;1.92;;;;;;;12.58;67.41;101049.88;4133055;28;20073;-63
2022/09/19 08:44:08;;;;;;;9.25;1.85;;;;;;;12.57;67.00;101052.47;4144485;28;20384;-66
2022/09/19 08:46:16;;;;;;;9.93;2.65;;;;;;;12.60;67.13;101046.41;4145014;28;20047;-67
2022/09/19 08:48:24;;;;;;;9.30;1.88;;;;;;;12.63;67.15;101051.69;4131169;28;20030;-66
2022/09/19 08:50:32;;;;;;;13.13;2.38;;;;;;;12.62;66.51;101060.38;4128769;28;20034;-68
2022/09/19 08:52:45;;;;;;;7.70;2.33;;;;;;;12.65;66.66;101055.22;4116483;28;20045;-67
2022/09/19 08:54:53;;;;;;;4.55;1.55;;;;;;;12.68;66.44;101057.84;4148695;28;20065;-69
2022/09/19 08:57:06;;;;;;;7.78;1.92;;;;;;;12.80;67.06;101059.78;4133028;28;20050;-67
2022/09/19 08:59:14;;;;;;;4.82;1.50;;;;;;;12.84;66.63;101058.97;4131730;28;20043;-68
2022/09/19 09:01:25;;;;;;;8.15;2.22;;;;;;;12.86;66.37;101057.25;4132747;28;20130;-68
2022/09/19 09:04:07;;;;;;;4.38;1.45;;;;;;;12.93;66.78;101062.56;4133353;28;20038;-66
2022/09/19 09:06:27;;;;;;;5.47;2.00;;;;;;;12.93;66.17;101067.78;4132616;28;20042;-64
2022/09/19 09:08:41;;;;;;;11.15;2.55;;;;;;;13.02;65.72;101058.34;4137163;28;20133;-61
2022/09/19 09:10:54;;;;;;;9.80;2.30;;;;;;;13.03;65.65;101068.78;4131276;28;20030;-67
2022/09/19 09:13:13;;;;;;;6.22;1.52;;;;;;;13.06;65.86;101067.97;4142515;28;20042;-66
2022/09/19 09:15:24;;;;;;;7.10;1.85;;;;;;;13.02;66.23;101066.16;4146271;28;20515;-67
2022/09/19 09:17:58;;;;;;;6.32;1.52;;;;;;;13.08;65.96;101063.63;4123754;28;20062;-67
2022/09/19 09:20:18;;;;;;;8.18;2.00;;;;;;;13.18;65.84;101073.34;4127717;28;20037;-67
2022/09/19 09:22:25;;;;;;;8.30;2.10;;;;;;;13.26;65.65;101066.50;4112621;28;20102;-67
2022/09/19 09:25:05;;;;;;;6.60;1.98;;;;;;;13.27;64.92;101065.66;4124306;28;20054;-69
2022/09/19 09:27:17;;;;;;;7.65;2.17;;;;;;;13.42;65.17;101064.13;4131470;28;20089;-67
2022/09/19 09:29:27;;;;;;;6.85;1.70;;;;;;;13.51;64.25;101065.97;4131117;28;20039;-67
2022/09/19 09:31:54;;;;;;;8.70;2.10;;;;;;;13.46;64.55;101065.88;4105448;28;20721;-65
2022/09/19 09:34:13;;;;;;;7.72;2.17;;;;;;;13.44;64.59;101065.00;4108646;28;20043;-65
2022/09/19 09:36:23;;;;;;;7.45;1.60;;;;;;;13.38;64.78;101071.03;4148094;28;20038;-65
2022/09/19 09:38:31;;;;;;;6.20;1.52;;;;;;;13.34;64.76;101073.56;4124568;28;20038;-65
2022/09/19 09:43:09;;;;;;;7.60;2.47;;;;;;;13.34;64.85;101073.56;4081548;28;20069;-65
2022/09/19 09:45:27;;;;;;;10.38;4.05;;;;;;;13.33;65.24;101077.00;4131314;28;20121;-65
2022/09/19 09:47:43;;;;;;;10.05;1.67;;;;;;;13.26;65.22;101068.25;4131726;28;20097;-65
2022/09/19 09:49:51;;;;;;;8.65;2.25;;;;;;;13.32;65.03;101060.47;4129564;28;20044;-66
2022/09/19 09:52:04;;;;;;;9.80;4.10;;;;;;;13.52;65.19;101059.88;4147997;28;20042;-66
2022/09/19 09:56:58;;;;;;;9.98;2.47;;;;;;;13.87;65.41;101052.44;4140801;28;20046;-66
2022/09/19 10:04:19;;;;;;;10.25;2.03;;;;;;;14.07;64.56;101038.66;4109357;28;20043;-66
2022/09/19 10:06:32;;;;;;;8.45;1.98;;;;;;;14.01;64.61;101038.63;4131512;28;20560;-66
2022/09/19 10:08:41;;;;;;;8.80;2.70;;;;;;;14.05;64.34;101048.25;4131370;28;20046;-66
2022/09/19 10:10:54;;;;;;;7.38;2.20;;;;;;;14.07;63.80;101043.91;4130399;28;20042;-66
2022/09/19 10:13:02;;;;;;;11.57;2.38;;;;;;;13.96;63.68;101042.06;4114957;28;20046;-65
2022/09/19 10:15:15;;;;;;;10.57;1.83;;;;;;;13.92;63.60;101042.88;4131197;28;20125;-64
2022/09/19 10:17:30;;;;;;;6.53;1.73;;;;;;;13.99;63.54;101048.16;4131330;28;20053;-65
2022/09/19 10:19:39;;;;;;;7.25;1.90;;;;;;;14.03;63.57;101049.97;4131320;28;20073;-65